sensor_id;sensor_type;location;lat;lon;timestamp;P1;durP1;ratioP1;P2;durP2;ratioP2
6475;SDS011;3271;51.910;5.840;2022-10-30T00:02:08;9.20;;;5.57;;
6475;SDS011;3271;51.910;5.840;2022-10-30T00:04:34;11.30;;;6.13;;
6475;SDS011;3271;51.910;5.840;2022-10-30T00:07:00;6.78;;;6.07;;
6475;SDS011;3271;51.910;5.840;2022-10-30T00:09:26;10.65;;;5.80;;
6475;SDS011;3271;51.910;5.840;2022-10-30T00:11:51;11.93;;;5.82;;
6475;SDS011;3271;51.910;5.840;2022-10-30T00:14:17;11.30;;;6.47;;
6475;SDS011;3271;51.910;5.840;2022-10-30T00:16:43;9.77;;;6.82;;
6475;SDS011;3271;51.910;5.840;2022-10-30T00:19:09;8.10;;;5.93;;
6475;SDS011;3271;51.910;5.840;2022-10-30T00:21:35;10.50;;;6.43;;
6475;SDS011;3271;51.910;5.840;2022-10-30T00:24:01;10.68;;;6.35;;
6475;SDS011;3271;51.910;5.840;2022-10-30T00:26:27;11.60;;;6.68;;
6475;SDS011;3271;51.910;5.840;2022-10-30T00:28:53;10.80;;;6.43;;
6475;SDS011;3271;51.910;5.840;2022-10-30T00:31:20;11.38;;;6.22;;
6475;SDS011;3271;51.910;5.840;2022-10-30T00:33:50;10.73;;;6.82;;
6475;SDS011;3271;51.910;5.840;2022-10-30T00:36:16;9.70;;;6.57;;
6475;SDS011;3271;51.910;5.840;2022-10-30T00:38:42;12.88;;;6.25;;
6475;SDS011;3271;51.910;5.840;2022-10-30T00:41:12;9.23;;;6.43;;
6475;SDS011;3271;51.910;5.840;2022-10-30T00:43:39;11.85;;;6.80;;
6475;SDS011;3271;51.910;5.840;2022-10-30T00:46:17;14.00;;;6.40;;
6475;SDS011;3271;51.910;5.840;2022-10-30T00:48:47;10.95;;;7.35;;
6475;SDS011;3271;51.910;5.840;2022-10-30T00:51:14;10.13;;;6.55;;
6475;SDS011;3271;51.910;5.840;2022-10-30T00:53:40;12.80;;;6.80;;
6475;SDS011;3271;51.910;5.840;2022-10-30T00:56:07;11.23;;;6.10;;
6475;SDS011;3271;51.910;5.840;2022-10-30T00:58:37;14.35;;;8.43;;
6475;SDS011;3271;51.910;5.840;2022-10-30T01:01:05;14.02;;;7.40;;
6475;SDS011;3271;51.910;5.840;2022-10-30T01:03:32;9.18;;;6.95;;
6475;SDS011;3271;51.910;5.840;2022-10-30T01:06:02;10.25;;;6.25;;
6475;SDS011;3271;51.910;5.840;2022-10-30T01:08:29;8.90;;;5.65;;
6475;SDS011;3271;51.910;5.840;2022-10-30T01:10:56;9.18;;;6.28;;
6475;SDS011;3271;51.910;5.840;2022-10-30T01:13:22;11.70;;;6.90;;
6475;SDS011;3271;51.910;5.840;2022-10-30T01:15:52;9.82;;;6.05;;
6475;SDS011;3271;51.910;5.840;2022-10-30T01:23:34;9.48;;;6.32;;
6475;SDS011;3271;51.910;5.840;2022-10-30T01:37:17;10.48;;;6.35;;
6475;SDS011;3271;51.910;5.840;2022-10-30T01:39:36;11.73;;;7.50;;
6475;SDS011;3271;51.910;5.840;2022-10-30T01:44:47;10.02;;;6.97;;
6475;SDS011;3271;51.910;5.840;2022-10-30T01:47:19;11.38;;;6.57;;
6475;SDS011;3271;51.910;5.840;2022-10-30T01:50:00;7.93;;;6.35;;
6475;SDS011;3271;51.910;5.840;2022-10-30T01:52:31;10.60;;;6.60;;
6475;SDS011;3271;51.910;5.840;2022-10-30T01:55:10;8.98;;;6.30;;
6475;SDS011;3271;51.910;5.840;2022-10-30T01:58:21;9.57;;;6.57;;
6475;SDS011;3271;51.910;5.840;2022-10-30T02:00:26;8.98;;;6.80;;
6475;SDS011;3271;51.910;5.840;2022-10-30T02:02:53;9.45;;;6.30;;
6475;SDS011;3271;51.910;5.840;2022-10-30T02:05:20;11.40;;;7.20;;
6475;SDS011;3271;51.910;5.840;2022-10-30T02:07:50;11.10;;;7.60;;
6475;SDS011;3271;51.910;5.840;2022-10-30T02:10:16;9.68;;;6.97;;
6475;SDS011;3271;51.910;5.840;2022-10-30T02:12:42;9.43;;;6.43;;
6475;SDS011;3271;51.910;5.840;2022-10-30T02:15:08;10.77;;;6.13;;
6475;SDS011;3271;51.910;5.840;2022-10-30T02:17:34;11.70;;;7.15;;
6475;SDS011;3271;51.910;5.840;2022-10-30T02:20:01;10.98;;;6.72;;
6475;SDS011;3271;51.910;5.840;2022-10-30T02:22:27;9.85;;;6.38;;
6475;SDS011;3271;51.910;5.840;2022-10-30T02:24:53;11.90;;;6.25;;
6475;SDS011;3271;51.910;5.840;2022-10-30T02:27:19;10.07;;;7.35;;
6475;SDS011;3271;51.910;5.840;2022-10-30T02:29:45;11.60;;;6.50;;
6475;SDS011;3271;51.910;5.840;2022-10-30T02:32:10;11.80;;;7.13;;
6475;SDS011;3271;51.910;5.840;2022-10-30T02:34:36;9.05;;;6.80;;
6475;SDS011;3271;51.910;5.840;2022-10-30T02:37:02;11.10;;;6.97;;
6475;SDS011;3271;51.910;5.840;2022-10-30T02:39:28;14.30;;;7.45;;
6475;SDS011;3271;51.910;5.840;2022-10-30T02:41:54;8.55;;;6.63;;
6475;SDS011;3271;51.910;5.840;2022-10-30T02:44:20;9.32;;;6.18;;
6475;SDS011;3271;51.910;5.840;2022-10-30T02:46:46;8.65;;;6.13;;
6475;SDS011;3271;51.910;5.840;2022-10-30T02:49:12;12.98;;;6.45;;
6475;SDS011;3271;51.910;5.840;2022-10-30T02:51:38;9.38;;;6.35;;
6475;SDS011;3271;51.910;5.840;2022-10-30T02:54:04;12.20;;;7.20;;
6475;SDS011;3271;51.910;5.840;2022-10-30T02:56:30;12.95;;;6.60;;
6475;SDS011;3271;51.910;5.840;2022-10-30T02:58:56;12.00;;;6.45;;
6475;SDS011;3271;51.910;5.840;2022-10-30T03:01:21;10.57;;;6.68;;
6475;SDS011;3271;51.910;5.840;2022-10-30T03:03:47;11.05;;;6.95;;
6475;SDS011;3271;51.910;5.840;2022-10-30T03:06:14;8.13;;;6.75;;
6475;SDS011;3271;51.910;5.840;2022-10-30T03:08:41;9.85;;;6.80;;
6475;SDS011;3271;51.910;5.840;2022-10-30T03:11:08;10.18;;;6.72;;
6475;SDS011;3271;51.910;5.840;2022-10-30T03:13:34;13.52;;;7.65;;
6475;SDS011;3271;51.910;5.840;2022-10-30T03:16:02;13.50;;;6.57;;
6475;SDS011;3271;51.910;5.840;2022-10-30T03:18:28;9.07;;;6.40;;
6475;SDS011;3271;51.910;5.840;2022-10-30T03:20:57;11.00;;;6.88;;
6475;SDS011;3271;51.910;5.840;2022-10-30T03:23:23;12.15;;;6.95;;
6475;SDS011;3271;51.910;5.840;2022-10-30T03:25:53;11.45;;;6.70;;
6475;SDS011;3271;51.910;5.840;2022-10-30T03:28:19;10.82;;;6.95;;
6475;SDS011;3271;51.910;5.840;2022-10-30T03:30:45;10.25;;;6.85;;
6475;SDS011;3271;51.910;5.840;2022-10-30T03:33:11;9.63;;;7.00;;
6475;SDS011;3271;51.910;5.840;2022-10-30T03:35:37;9.13;;;6.88;;
6475;SDS011;3271;51.910;5.840;2022-10-30T03:38:03;11.55;;;6.35;;
6475;SDS011;3271;51.910;5.840;2022-10-30T03:40:29;11.10;;;7.07;;
6475;SDS011;3271;51.910;5.840;2022-10-30T03:42:55;10.20;;;7.55;;
6475;SDS011;3271;51.910;5.840;2022-10-30T03:45:21;10.23;;;7.15;;
6475;SDS011;3271;51.910;5.840;2022-10-30T03:47:47;7.68;;;6.65;;
6475;SDS011;3271;51.910;5.840;2022-10-30T03:50:13;10.23;;;6.55;;
6475;SDS011;3271;51.910;5.840;2022-10-30T03:52:39;10.48;;;6.30;;
6475;SDS011;3271;51.910;5.840;2022-10-30T03:55:05;13.57;;;6.88;;
6475;SDS011;3271;51.910;5.840;2022-10-30T03:57:34;12.43;;;7.30;;
6475;SDS011;3271;51.910;5.840;2022-10-30T04:00:00;9.90;;;6.95;;
6475;SDS011;3271;51.910;5.840;2022-10-30T04:02:26;8.63;;;6.13;;
6475;SDS011;3271;51.910;5.840;2022-10-30T04:04:52;9.75;;;6.97;;
6475;SDS011;3271;51.910;5.840;2022-10-30T04:07:18;9.55;;;7.03;;
6475;SDS011;3271;51.910;5.840;2022-10-30T04:09:44;9.38;;;6.63;;
6475;SDS011;3271;51.910;5.840;2022-10-30T04:12:10;14.23;;;7.72;;
6475;SDS011;3271;51.910;5.840;2022-10-30T04:14:36;9.93;;;6.78;;
6475;SDS011;3271;51.910;5.840;2022-10-30T04:17:02;10.02;;;6.70;;
6475;SDS011;3271;51.910;5.840;2022-10-30T04:19:30;9.38;;;7.35;;
6475;SDS011;3271;51.910;5.840;2022-10-30T04:21:55;7.68;;;6.45;;
6475;SDS011;3271;51.910;5.840;2022-10-30T04:24:21;10.73;;;6.82;;
6475;SDS011;3271;51.910;5.840;2022-10-30T04:26:47;9.55;;;6.65;;
6475;SDS011;3271;51.910;5.840;2022-10-30T04:29:13;8.35;;;6.88;;
6475;SDS011;3271;51.910;5.840;2022-10-30T04:31:39;10.13;;;6.55;;
6475;SDS011;3271;51.910;5.840;2022-10-30T04:34:05;12.32;;;8.40;;
6475;SDS011;3271;51.910;5.840;2022-10-30T04:36:31;9.18;;;7.00;;
6475;SDS011;3271;51.910;5.840;2022-10-30T04:38:58;13.15;;;7.30;;
6475;SDS011;3271;51.910;5.840;2022-10-30T04:41:24;11.13;;;6.40;;
6475;SDS011;3271;51.910;5.840;2022-10-30T04:43:50;10.43;;;6.13;;
6475;SDS011;3271;51.910;5.840;2022-10-30T04:46:16;11.95;;;7.05;;
6475;SDS011;3271;51.910;5.840;2022-10-30T04:48:42;9.82;;;6.78;;
6475;SDS011;3271;51.910;5.840;2022-10-30T04:51:08;10.02;;;6.63;;
6475;SDS011;3271;51.910;5.840;2022-10-30T04:53:35;9.07;;;6.68;;
6475;SDS011;3271;51.910;5.840;2022-10-30T04:56:01;10.85;;;7.90;;
6475;SDS011;3271;51.910;5.840;2022-10-30T04:58:27;9.35;;;6.70;;
6475;SDS011;3271;51.910;5.840;2022-10-30T05:00:53;9.57;;;6.47;;
6475;SDS011;3271;51.910;5.840;2022-10-30T05:03:20;11.93;;;6.65;;
6475;SDS011;3271;51.910;5.840;2022-10-30T05:05:47;11.07;;;7.03;;
6475;SDS011;3271;51.910;5.840;2022-10-30T05:08:13;8.35;;;6.30;;
6475;SDS011;3271;51.910;5.840;2022-10-30T05:10:39;11.10;;;7.03;;
6475;SDS011;3271;51.910;5.840;2022-10-30T05:13:05;11.00;;;7.38;;
6475;SDS011;3271;51.910;5.840;2022-10-30T05:15:31;9.40;;;6.75;;
6475;SDS011;3271;51.910;5.840;2022-10-30T05:17:57;11.68;;;7.47;;
6475;SDS011;3271;51.910;5.840;2022-10-30T05:20:23;11.60;;;6.70;;
6475;SDS011;3271;51.910;5.840;2022-10-30T05:22:55;10.65;;;6.95;;
6475;SDS011;3271;51.910;5.840;2022-10-30T05:25:22;10.95;;;7.32;;
6475;SDS011;3271;51.910;5.840;2022-10-30T05:27:48;13.35;;;6.53;;
6475;SDS011;3271;51.910;5.840;2022-10-30T05:30:14;12.13;;;7.45;;
6475;SDS011;3271;51.910;5.840;2022-10-30T05:32:40;9.43;;;6.53;;
6475;SDS011;3271;51.910;5.840;2022-10-30T05:35:06;9.73;;;6.95;;
6475;SDS011;3271;51.910;5.840;2022-10-30T05:37:32;9.63;;;6.30;;
6475;SDS011;3271;51.910;5.840;2022-10-30T05:39:58;12.50;;;6.78;;
6475;SDS011;3271;51.910;5.840;2022-10-30T05:42:24;9.73;;;6.30;;
6475;SDS011;3271;51.910;5.840;2022-10-30T05:44:50;10.15;;;7.47;;
6475;SDS011;3271;51.910;5.840;2022-10-30T05:47:16;10.65;;;6.25;;
6475;SDS011;3271;51.910;5.840;2022-10-30T05:49:42;11.13;;;6.95;;
6475;SDS011;3271;51.910;5.840;2022-10-30T05:52:08;11.40;;;6.53;;
6475;SDS011;3271;51.910;5.840;2022-10-30T05:54:34;10.23;;;6.90;;
6475;SDS011;3271;51.910;5.840;2022-10-30T05:56:59;7.80;;;6.47;;
6475;SDS011;3271;51.910;5.840;2022-10-30T05:59:25;10.75;;;6.53;;
6475;SDS011;3271;51.910;5.840;2022-10-30T06:01:51;8.77;;;6.57;;
6475;SDS011;3271;51.910;5.840;2022-10-30T06:04:17;10.20;;;6.03;;
6475;SDS011;3271;51.910;5.840;2022-10-30T06:06:43;11.02;;;6.47;;
6475;SDS011;3271;51.910;5.840;2022-10-30T06:09:09;8.55;;;6.60;;
6475;SDS011;3271;51.910;5.840;2022-10-30T06:11:35;11.73;;;6.30;;
6475;SDS011;3271;51.910;5.840;2022-10-30T06:14:01;8.32;;;6.53;;
6475;SDS011;3271;51.910;5.840;2022-10-30T06:16:27;8.75;;;6.80;;
6475;SDS011;3271;51.910;5.840;2022-10-30T06:18:53;9.13;;;6.60;;
6475;SDS011;3271;51.910;5.840;2022-10-30T06:21:19;9.80;;;6.38;;
6475;SDS011;3271;51.910;5.840;2022-10-30T06:23:46;8.60;;;6.15;;
6475;SDS011;3271;51.910;5.840;2022-10-30T06:26:12;10.20;;;6.15;;
6475;SDS011;3271;51.910;5.840;2022-10-30T06:28:38;9.90;;;5.85;;
6475;SDS011;3271;51.910;5.840;2022-10-30T06:31:04;8.13;;;6.38;;
6475;SDS011;3271;51.910;5.840;2022-10-30T06:33:30;10.10;;;7.07;;
6475;SDS011;3271;51.910;5.840;2022-10-30T06:35:56;11.60;;;6.97;;
6475;SDS011;3271;51.910;5.840;2022-10-30T06:38:22;11.52;;;7.63;;
6475;SDS011;3271;51.910;5.840;2022-10-30T06:40:48;11.43;;;6.53;;
6475;SDS011;3271;51.910;5.840;2022-10-30T06:43:14;7.63;;;6.57;;
6475;SDS011;3271;51.910;5.840;2022-10-30T06:45:40;8.20;;;6.07;;
6475;SDS011;3271;51.910;5.840;2022-10-30T06:48:06;9.52;;;6.40;;
6475;SDS011;3271;51.910;5.840;2022-10-30T06:50:31;9.57;;;7.15;;
6475;SDS011;3271;51.910;5.840;2022-10-30T06:52:57;8.77;;;6.80;;
6475;SDS011;3271;51.910;5.840;2022-10-30T06:55:23;9.15;;;6.82;;
6475;SDS011;3271;51.910;5.840;2022-10-30T06:57:52;11.77;;;7.30;;
6475;SDS011;3271;51.910;5.840;2022-10-30T07:00:19;10.98;;;6.03;;
6475;SDS011;3271;51.910;5.840;2022-10-30T07:02:53;7.78;;;6.47;;
6475;SDS011;3271;51.910;5.840;2022-10-30T07:05:19;10.95;;;6.65;;
6475;SDS011;3271;51.910;5.840;2022-10-30T07:07:45;8.60;;;6.38;;
6475;SDS011;3271;51.910;5.840;2022-10-30T07:10:11;9.85;;;6.50;;
6475;SDS011;3271;51.910;5.840;2022-10-30T07:12:37;9.25;;;6.60;;
6475;SDS011;3271;51.910;5.840;2022-10-30T07:15:02;10.32;;;7.32;;
6475;SDS011;3271;51.910;5.840;2022-10-30T07:17:28;10.50;;;6.97;;
6475;SDS011;3271;51.910;5.840;2022-10-30T07:19:54;10.80;;;6.95;;
6475;SDS011;3271;51.910;5.840;2022-10-30T07:22:20;12.05;;;7.00;;
6475;SDS011;3271;51.910;5.840;2022-10-30T07:24:46;9.65;;;6.80;;
6475;SDS011;3271;51.910;5.840;2022-10-30T07:27:12;7.88;;;6.55;;
6475;SDS011;3271;51.910;5.840;2022-10-30T07:29:38;9.73;;;6.70;;
6475;SDS011;3271;51.910;5.840;2022-10-30T07:32:04;9.32;;;7.35;;
6475;SDS011;3271;51.910;5.840;2022-10-30T07:34:30;12.55;;;7.13;;
6475;SDS011;3271;51.910;5.840;2022-10-30T07:36:56;11.02;;;7.70;;
6475;SDS011;3271;51.910;5.840;2022-10-30T07:39:22;14.32;;;7.57;;
6475;SDS011;3271;51.910;5.840;2022-10-30T07:41:48;9.05;;;6.70;;
6475;SDS011;3271;51.910;5.840;2022-10-30T07:44:14;11.82;;;6.93;;
6475;SDS011;3271;51.910;5.840;2022-10-30T07:46:40;11.15;;;8.10;;
6475;SDS011;3271;51.910;5.840;2022-10-30T07:49:06;9.95;;;7.57;;
6475;SDS011;3271;51.910;5.840;2022-10-30T07:51:32;9.23;;;7.63;;
6475;SDS011;3271;51.910;5.840;2022-10-30T07:53:58;9.90;;;6.80;;
6475;SDS011;3271;51.910;5.840;2022-10-30T07:56:24;11.65;;;8.10;;
6475;SDS011;3271;51.910;5.840;2022-10-30T07:58:50;10.35;;;6.50;;
6475;SDS011;3271;51.910;5.840;2022-10-30T08:01:15;10.77;;;6.82;;
6475;SDS011;3271;51.910;5.840;2022-10-30T08:03:41;10.18;;;7.22;;
6475;SDS011;3271;51.910;5.840;2022-10-30T08:06:07;9.40;;;7.47;;
6475;SDS011;3271;51.910;5.840;2022-10-30T08:08:33;11.00;;;7.45;;
6475;SDS011;3271;51.910;5.840;2022-10-30T08:10:59;16.75;;;9.23;;
6475;SDS011;3271;51.910;5.840;2022-10-30T08:13:25;10.75;;;7.75;;
6475;SDS011;3271;51.910;5.840;2022-10-30T08:15:51;13.45;;;8.65;;
6475;SDS011;3271;51.910;5.840;2022-10-30T08:18:17;9.52;;;7.95;;
6475;SDS011;3271;51.910;5.840;2022-10-30T08:20:43;10.95;;;9.00;;
6475;SDS011;3271;51.910;5.840;2022-10-30T08:23:14;14.45;;;8.88;;
6475;SDS011;3271;51.910;5.840;2022-10-30T08:25:41;14.38;;;9.90;;
6475;SDS011;3271;51.910;5.840;2022-10-30T08:28:08;10.85;;;8.82;;
6475;SDS011;3271;51.910;5.840;2022-10-30T08:30:35;13.18;;;8.90;;
6475;SDS011;3271;51.910;5.840;2022-10-30T08:33:03;11.82;;;8.95;;
6475;SDS011;3271;51.910;5.840;2022-10-30T08:35:29;9.90;;;8.43;;
6475;SDS011;3271;51.910;5.840;2022-10-30T08:37:56;12.75;;;8.82;;
6475;SDS011;3271;51.910;5.840;2022-10-30T08:40:23;11.07;;;7.85;;
6475;SDS011;3271;51.910;5.840;2022-10-30T08:42:58;11.43;;;8.25;;
6475;SDS011;3271;51.910;5.840;2022-10-30T08:45:24;12.07;;;7.97;;
6475;SDS011;3271;51.910;5.840;2022-10-30T08:47:57;10.75;;;8.20;;
6475;SDS011;3271;51.910;5.840;2022-10-30T08:50:23;13.02;;;8.95;;
6475;SDS011;3271;51.910;5.840;2022-10-30T08:52:49;12.02;;;8.88;;
6475;SDS011;3271;51.910;5.840;2022-10-30T08:55:15;11.65;;;8.75;;
6475;SDS011;3271;51.910;5.840;2022-10-30T08:57:41;11.73;;;7.70;;
6475;SDS011;3271;51.910;5.840;2022-10-30T09:00:07;9.90;;;7.78;;
6475;SDS011;3271;51.910;5.840;2022-10-30T09:02:34;12.48;;;8.18;;
6475;SDS011;3271;51.910;5.840;2022-10-30T09:05:00;11.88;;;8.55;;
6475;SDS011;3271;51.910;5.840;2022-10-30T09:07:26;11.07;;;8.07;;
6475;SDS011;3271;51.910;5.840;2022-10-30T09:09:52;10.63;;;8.57;;
6475;SDS011;3271;51.910;5.840;2022-10-30T09:12:18;9.23;;;7.63;;
6475;SDS011;3271;51.910;5.840;2022-10-30T09:14:43;12.10;;;8.38;;
6475;SDS011;3271;51.910;5.840;2022-10-30T09:17:09;11.05;;;8.65;;
6475;SDS011;3271;51.910;5.840;2022-10-30T09:19:35;12.75;;;8.95;;
6475;SDS011;3271;51.910;5.840;2022-10-30T09:22:01;12.50;;;8.52;;
6475;SDS011;3271;51.910;5.840;2022-10-30T09:24:27;9.80;;;8.45;;
6475;SDS011;3271;51.910;5.840;2022-10-30T09:26:54;12.75;;;8.77;;
6475;SDS011;3271;51.910;5.840;2022-10-30T09:29:20;12.68;;;8.98;;
6475;SDS011;3271;51.910;5.840;2022-10-30T09:31:46;12.00;;;8.65;;
6475;SDS011;3271;51.910;5.840;2022-10-30T09:34:12;11.45;;;8.70;;
6475;SDS011;3271;51.910;5.840;2022-10-30T09:36:38;10.68;;;9.02;;
6475;SDS011;3271;51.910;5.840;2022-10-30T09:39:04;14.07;;;8.60;;
6475;SDS011;3271;51.910;5.840;2022-10-30T09:41:34;10.32;;;8.35;;
6475;SDS011;3271;51.910;5.840;2022-10-30T09:44:22;11.98;;;8.30;;
6475;SDS011;3271;51.910;5.840;2022-10-30T09:49:50;14.52;;;9.43;;
6475;SDS011;3271;51.910;5.840;2022-10-30T09:52:21;10.10;;;7.65;;
6475;SDS011;3271;51.910;5.840;2022-10-30T09:54:54;14.93;;;9.10;;
6475;SDS011;3271;51.910;5.840;2022-10-30T10:02:32;13.60;;;7.80;;
6475;SDS011;3271;51.910;5.840;2022-10-30T10:05:03;14.30;;;8.65;;
6475;SDS011;3271;51.910;5.840;2022-10-30T10:07:31;13.68;;;8.93;;
6475;SDS011;3271;51.910;5.840;2022-10-30T10:10:04;15.20;;;8.55;;
6475;SDS011;3271;51.910;5.840;2022-10-30T10:12:36;14.40;;;8.10;;
6475;SDS011;3271;51.910;5.840;2022-10-30T10:15:16;13.52;;;9.05;;
6475;SDS011;3271;51.910;5.840;2022-10-30T10:17:44;14.52;;;8.57;;
6475;SDS011;3271;51.910;5.840;2022-10-30T10:20:15;13.60;;;8.82;;
6475;SDS011;3271;51.910;5.840;2022-10-30T10:22:46;20.00;;;9.57;;
6475;SDS011;3271;51.910;5.840;2022-10-30T10:25:13;11.88;;;8.73;;
6475;SDS011;3271;51.910;5.840;2022-10-30T10:27:49;15.48;;;9.77;;
6475;SDS011;3271;51.910;5.840;2022-10-30T10:30:18;13.30;;;9.68;;
6475;SDS011;3271;51.910;5.840;2022-10-30T10:35:36;14.23;;;8.70;;
6475;SDS011;3271;51.910;5.840;2022-10-30T10:38:21;12.25;;;8.55;;
6475;SDS011;3271;51.910;5.840;2022-10-30T10:48:42;17.25;;;9.57;;
6475;SDS011;3271;51.910;5.840;2022-10-30T10:51:12;13.90;;;9.60;;
6475;SDS011;3271;51.910;5.840;2022-10-30T10:53:45;16.98;;;9.80;;
6475;SDS011;3271;51.910;5.840;2022-10-30T10:56:13;17.63;;;9.30;;
6475;SDS011;3271;51.910;5.840;2022-10-30T10:58:43;18.88;;;9.43;;
6475;SDS011;3271;51.910;5.840;2022-10-30T11:01:14;14.10;;;9.55;;
6475;SDS011;3271;51.910;5.840;2022-10-30T11:03:55;15.10;;;9.40;;
6475;SDS011;3271;51.910;5.840;2022-10-30T11:06:26;17.10;;;11.15;;
6475;SDS011;3271;51.910;5.840;2022-10-30T11:08:55;14.98;;;10.10;;
6475;SDS011;3271;51.910;5.840;2022-10-30T11:11:25;12.70;;;8.70;;
6475;SDS011;3271;51.910;5.840;2022-10-30T11:13:51;17.60;;;10.07;;
6475;SDS011;3271;51.910;5.840;2022-10-30T11:16:24;14.77;;;9.05;;
6475;SDS011;3271;51.910;5.840;2022-10-30T11:18:57;15.23;;;8.85;;
6475;SDS011;3271;51.910;5.840;2022-10-30T11:21:24;17.83;;;8.27;;
6475;SDS011;3271;51.910;5.840;2022-10-30T11:23:51;14.05;;;8.65;;
6475;SDS011;3271;51.910;5.840;2022-10-30T11:28:56;13.93;;;8.13;;
6475;SDS011;3271;51.910;5.840;2022-10-30T11:33:51;14.15;;;7.93;;
6475;SDS011;3271;51.910;5.840;2022-10-30T11:36:21;16.90;;;7.43;;
6475;SDS011;3271;51.910;5.840;2022-10-30T11:38:47;18.10;;;7.88;;
6475;SDS011;3271;51.910;5.840;2022-10-30T11:41:13;10.95;;;7.70;;
6475;SDS011;3271;51.910;5.840;2022-10-30T11:43:40;15.07;;;7.13;;
6475;SDS011;3271;51.910;5.840;2022-10-30T11:46:07;12.25;;;7.10;;
6475;SDS011;3271;51.910;5.840;2022-10-30T11:48:38;12.45;;;8.15;;
6475;SDS011;3271;51.910;5.840;2022-10-30T11:51:07;11.70;;;7.03;;
6475;SDS011;3271;51.910;5.840;2022-10-30T11:53:35;12.60;;;7.30;;
6475;SDS011;3271;51.910;5.840;2022-10-30T11:56:03;13.80;;;7.22;;
6475;SDS011;3271;51.910;5.840;2022-10-30T11:58:40;11.57;;;6.35;;
6475;SDS011;3271;51.910;5.840;2022-10-30T12:03:40;10.27;;;7.93;;
6475;SDS011;3271;51.910;5.840;2022-10-30T12:08:32;11.68;;;7.45;;
6475;SDS011;3271;51.910;5.840;2022-10-30T12:10:59;13.13;;;7.55;;
6475;SDS011;3271;51.910;5.840;2022-10-30T12:13:26;15.23;;;7.72;;
6475;SDS011;3271;51.910;5.840;2022-10-30T12:16:03;17.20;;;8.98;;
6475;SDS011;3271;51.910;5.840;2022-10-30T12:18:29;11.88;;;8.23;;
6475;SDS011;3271;51.910;5.840;2022-10-30T12:20:55;11.32;;;8.73;;
6475;SDS011;3271;51.910;5.840;2022-10-30T12:23:23;16.88;;;8.45;;
6475;SDS011;3271;51.910;5.840;2022-10-30T12:25:59;17.65;;;8.80;;
6475;SDS011;3271;51.910;5.840;2022-10-30T12:28:27;14.52;;;8.90;;
6475;SDS011;3271;51.910;5.840;2022-10-30T12:30:56;13.38;;;9.43;;
6475;SDS011;3271;51.910;5.840;2022-10-30T12:33:27;16.05;;;8.60;;
6475;SDS011;3271;51.910;5.840;2022-10-30T12:35:55;12.88;;;8.77;;
6475;SDS011;3271;51.910;5.840;2022-10-30T12:41:11;14.90;;;9.02;;
6475;SDS011;3271;51.910;5.840;2022-10-30T12:43:36;17.40;;;10.27;;
6475;SDS011;3271;51.910;5.840;2022-10-30T12:51:52;14.30;;;9.48;;
6475;SDS011;3271;51.910;5.840;2022-10-30T12:54:25;12.02;;;9.00;;
6475;SDS011;3271;51.910;5.840;2022-10-30T13:02:28;15.25;;;9.77;;
6475;SDS011;3271;51.910;5.840;2022-10-30T13:04:58;14.32;;;10.00;;
6475;SDS011;3271;51.910;5.840;2022-10-30T13:07:36;17.20;;;10.10;;
6475;SDS011;3271;51.910;5.840;2022-10-30T13:10:19;13.82;;;10.50;;
6475;SDS011;3271;51.910;5.840;2022-10-30T13:12:47;18.50;;;10.35;;
6475;SDS011;3271;51.910;5.840;2022-10-30T13:15:30;18.58;;;9.80;;
6475;SDS011;3271;51.910;5.840;2022-10-30T13:17:57;15.90;;;9.60;;
6475;SDS011;3271;51.910;5.840;2022-10-30T13:20:23;15.65;;;10.32;;
6475;SDS011;3271;51.910;5.840;2022-10-30T13:23:02;17.02;;;11.45;;
6475;SDS011;3271;51.910;5.840;2022-10-30T13:27:59;15.13;;;10.07;;
6475;SDS011;3271;51.910;5.840;2022-10-30T13:30:32;14.07;;;10.45;;
6475;SDS011;3271;51.910;5.840;2022-10-30T13:35:36;11.52;;;8.80;;
6475;SDS011;3271;51.910;5.840;2022-10-30T13:43:38;16.48;;;9.32;;
6475;SDS011;3271;51.910;5.840;2022-10-30T13:46:31;14.10;;;9.80;;
6475;SDS011;3271;51.910;5.840;2022-10-30T13:48:59;14.40;;;10.05;;
6475;SDS011;3271;51.910;5.840;2022-10-30T13:51:44;12.90;;;10.00;;
6475;SDS011;3271;51.910;5.840;2022-10-30T13:54:56;16.17;;;9.65;;
6475;SDS011;3271;51.910;5.840;2022-10-30T13:57:04;21.13;;;10.70;;
6475;SDS011;3271;51.910;5.840;2022-10-30T13:59:42;13.57;;;9.82;;
6475;SDS011;3271;51.910;5.840;2022-10-30T14:04:46;16.30;;;10.07;;
6475;SDS011;3271;51.910;5.840;2022-10-30T14:07:22;16.55;;;9.80;;
6475;SDS011;3271;51.910;5.840;2022-10-30T14:10:03;13.43;;;10.07;;
6475;SDS011;3271;51.910;5.840;2022-10-30T14:12:46;15.98;;;9.80;;
6475;SDS011;3271;51.910;5.840;2022-10-30T14:16:00;14.75;;;10.23;;
6475;SDS011;3271;51.910;5.840;2022-10-30T14:20:36;14.85;;;10.65;;
6475;SDS011;3271;51.910;5.840;2022-10-30T14:23:06;14.50;;;8.90;;
6475;SDS011;3271;51.910;5.840;2022-10-30T14:25:33;15.77;;;9.57;;
6475;SDS011;3271;51.910;5.840;2022-10-30T14:27:59;13.60;;;9.43;;
6475;SDS011;3271;51.910;5.840;2022-10-30T14:30:26;15.43;;;10.45;;
6475;SDS011;3271;51.910;5.840;2022-10-30T14:32:52;13.23;;;10.00;;
6475;SDS011;3271;51.910;5.840;2022-10-30T14:35:35;16.10;;;10.23;;
6475;SDS011;3271;51.910;5.840;2022-10-30T14:40:36;15.18;;;9.90;;
6475;SDS011;3271;51.910;5.840;2022-10-30T14:43:22;13.98;;;9.38;;
6475;SDS011;3271;51.910;5.840;2022-10-30T14:45:52;15.55;;;10.10;;
6475;SDS011;3271;51.910;5.840;2022-10-30T14:48:34;12.93;;;9.90;;
6475;SDS011;3271;51.910;5.840;2022-10-30T14:54:00;16.55;;;11.13;;
6475;SDS011;3271;51.910;5.840;2022-10-30T14:56:34;12.57;;;10.30;;
6475;SDS011;3271;51.910;5.840;2022-10-30T15:04:09;16.60;;;10.15;;
6475;SDS011;3271;51.910;5.840;2022-10-30T15:06:41;14.00;;;10.38;;
6475;SDS011;3271;51.910;5.840;2022-10-30T15:09:17;18.08;;;10.35;;
6475;SDS011;3271;51.910;5.840;2022-10-30T15:11:48;17.00;;;10.38;;
6475;SDS011;3271;51.910;5.840;2022-10-30T15:14:30;16.67;;;10.45;;
6475;SDS011;3271;51.910;5.840;2022-10-30T15:16:57;14.13;;;9.82;;
6475;SDS011;3271;51.910;5.840;2022-10-30T15:19:23;17.00;;;10.32;;
6475;SDS011;3271;51.910;5.840;2022-10-30T15:21:53;15.43;;;9.50;;
6475;SDS011;3271;51.910;5.840;2022-10-30T15:24:23;14.57;;;10.38;;
6475;SDS011;3271;51.910;5.840;2022-10-30T15:26:51;14.48;;;10.32;;
6475;SDS011;3271;51.910;5.840;2022-10-30T15:29:22;16.77;;;11.60;;
6475;SDS011;3271;51.910;5.840;2022-10-30T15:34:51;13.60;;;9.43;;
6475;SDS011;3271;51.910;5.840;2022-10-30T15:37:18;14.70;;;9.73;;
6475;SDS011;3271;51.910;5.840;2022-10-30T15:39:44;13.43;;;9.70;;
6475;SDS011;3271;51.910;5.840;2022-10-30T15:42:10;17.27;;;9.95;;
6475;SDS011;3271;51.910;5.840;2022-10-30T15:44:36;14.18;;;9.93;;
6475;SDS011;3271;51.910;5.840;2022-10-30T15:47:03;18.23;;;10.40;;
6475;SDS011;3271;51.910;5.840;2022-10-30T15:49:34;12.07;;;9.60;;
6475;SDS011;3271;51.910;5.840;2022-10-30T15:52:03;12.90;;;9.50;;
6475;SDS011;3271;51.910;5.840;2022-10-30T15:54:30;16.08;;;9.60;;
6475;SDS011;3271;51.910;5.840;2022-10-30T15:56:57;12.60;;;9.32;;
6475;SDS011;3271;51.910;5.840;2022-10-30T15:59:25;14.45;;;9.27;;
6475;SDS011;3271;51.910;5.840;2022-10-30T16:01:52;14.55;;;9.30;;
6475;SDS011;3271;51.910;5.840;2022-10-30T16:06:52;16.27;;;10.68;;
6475;SDS011;3271;51.910;5.840;2022-10-30T16:09:18;16.15;;;9.95;;
6475;SDS011;3271;51.910;5.840;2022-10-30T16:11:44;16.20;;;10.52;;
6475;SDS011;3271;51.910;5.840;2022-10-30T16:14:15;18.42;;;10.13;;
6475;SDS011;3271;51.910;5.840;2022-10-30T16:16:42;16.00;;;10.20;;
6475;SDS011;3271;51.910;5.840;2022-10-30T16:19:10;16.92;;;10.13;;
6475;SDS011;3271;51.910;5.840;2022-10-30T16:21:42;13.20;;;10.25;;
6475;SDS011;3271;51.910;5.840;2022-10-30T16:24:10;12.90;;;10.32;;
6475;SDS011;3271;51.910;5.840;2022-10-30T16:26:36;17.65;;;10.00;;
6475;SDS011;3271;51.910;5.840;2022-10-30T16:31:37;16.77;;;10.73;;
6475;SDS011;3271;51.910;5.840;2022-10-30T16:34:03;13.77;;;9.85;;
6475;SDS011;3271;51.910;5.840;2022-10-30T16:36:33;15.90;;;9.05;;
6475;SDS011;3271;51.910;5.840;2022-10-30T16:38:59;17.33;;;10.32;;
6475;SDS011;3271;51.910;5.840;2022-10-30T16:41:25;17.88;;;11.55;;
6475;SDS011;3271;51.910;5.840;2022-10-30T16:44:07;20.67;;;13.50;;
6475;SDS011;3271;51.910;5.840;2022-10-30T16:46:37;20.08;;;12.73;;